Time;durP1;ratioP1;P1;durP2;ratioP2;P2;SDS_P1;SDS_P2;PMS_P1;PMS_P2;Temp;Humidity;BMP_temperature;BMP_pressure;BME280_temperature;BME280_humidity;BME280_pressure;Samples;Min_cycle;Max_cycle;Signal;HPM_P1;HPM_P2
2022/01/03 00:00:01;;;;;;;18.70;1.55;;;10.40;99.90;;;;;;5027666;28;20136;-86
2022/01/03 00:02:27;;;;;;;17.63;1.27;;;10.40;99.90;;;;;;5009069;28;20026;-87
2022/01/03 00:04:52;;;;;;;18.73;1.55;;;10.40;99.90;;;;;;5007298;28;20100;-87
2022/01/03 00:07:18;;;;;;;23.75;2.17;;;10.30;99.90;;;;;;5008792;28;20068;-87
2022/01/03 00:09:44;;;;;;;21.10;2.03;;;10.30;99.90;;;;;;5011819;28;20061;-87
2022/01/03 00:12:10;;;;;;;23.05;1.85;;;10.40;99.90;;;;;;5009065;28;20034;-87
2022/01/03 00:14:36;;;;;;;16.58;1.38;;;10.30;99.90;;;;;;5009685;28;20057;-87
2022/01/03 00:17:01;;;;;;;22.45;1.98;;;10.30;99.90;;;;;;5032016;28;20467;-87
2022/01/03 00:19:27;;;;;;;19.55;1.88;;;10.30;99.90;;;;;;5015592;28;21809;-87
2022/01/03 00:21:57;;;;;;;20.60;2.03;;;10.30;99.90;;;;;;5031604;28;20022;-87
2022/01/03 00:24:27;;;;;;;31.77;2.35;;;10.30;99.90;;;;;;5009550;28;20018;-87
2022/01/03 00:27:00;;;;;;;21.98;2.25;;;10.40;99.90;;;;;;5014042;28;20037;-88
2022/01/03 00:29:30;;;;;;;26.83;1.90;;;10.30;99.90;;;;;;5013992;28;20042;-87
2022/01/03 00:31:57;;;;;;;19.15;1.42;;;10.40;99.90;;;;;;5007900;28;20501;-87
2022/01/03 00:34:27;;;;;;;30.42;3.00;;;10.40;99.90;;;;;;5008510;28;20546;-87
2022/01/03 00:36:54;;;;;;;24.50;2.60;;;10.40;99.90;;;;;;5012492;28;20795;-87
2022/01/03 00:39:20;;;;;;;31.15;2.75;;;10.30;99.90;;;;;;5027370;28;20037;-87
2022/01/03 00:41:49;;;;;;;18.95;2.25;;;10.40;99.90;;;;;;5025892;28;20026;-87
2022/01/03 00:44:15;;;;;;;27.13;2.33;;;10.40;99.90;;;;;;5031209;28;20034;-87
2022/01/03 00:46:43;;;;;;;28.42;2.20;;;10.40;99.90;;;;;;5027458;28;20087;-87
2022/01/03 00:49:09;;;;;;;26.35;2.00;;;10.40;99.90;;;;;;5032300;28;20535;-87
2022/01/03 00:51:35;;;;;;;29.25;2.13;;;10.40;99.90;;;;;;5026504;28;20035;-87
2022/01/03 00:54:02;;;;;;;23.60;2.42;;;10.40;99.90;;;;;;5012209;28;20026;-87
2022/01/03 00:56:49;;;;;;;23.33;1.83;;;10.40;99.90;;;;;;5013924;28;20444;-87
2022/01/03 00:59:32;;;;;;;22.35;2.30;;;10.40;99.90;;;;;;5014510;28;20037;-87
2022/01/03 01:01:58;;;;;;;;;;;10.40;99.90;;;;;;5014916;28;20136;-87
2022/01/03 01:04:24;;;;;;;16.95;1.65;;;10.40;99.90;;;;;;5002045;28;19906;-87
2022/01/03 01:06:53;;;;;;;19.67;1.67;;;10.40;99.90;;;;;;5014930;28;20037;-87
2022/01/03 01:09:21;;;;;;;30.88;2.33;;;10.40;99.90;;;;;;5011910;28;20032;-87
2022/01/03 01:11:46;;;;;;;19.20;1.60;;;10.40;99.90;;;;;;5007361;28;20022;-87
2022/01/03 01:14:13;;;;;;;22.98;2.60;;;10.50;99.90;;;;;;5026347;28;20061;-87
2022/01/03 01:16:39;;;;;;;20.15;1.60;;;10.50;99.90;;;;;;5013252;28;20057;-87
2022/01/03 01:19:06;;;;;;;15.95;1.48;;;10.50;99.90;;;;;;5012888;28;20118;-87
2022/01/03 01:21:32;;;;;;;19.40;1.25;;;10.60;99.90;;;;;;5030286;28;20053;-87
2022/01/03 01:23:58;;;;;;;23.63;1.95;;;10.60;99.90;;;;;;5013704;28;20057;-87
2022/01/03 01:29:10;;;;;;;20.63;2.58;;;10.60;99.90;;;;;;5011065;28;20076;-86
2022/01/03 01:31:43;;;;;;;22.10;1.90;;;10.60;99.90;;;;;;5007706;28;20067;-87
2022/01/03 01:34:14;;;;;;;22.25;2.08;;;10.60;99.90;;;;;;5018832;28;20402;-87
2022/01/03 01:36:45;;;;;;;21.30;2.13;;;10.60;99.90;;;;;;5030646;28;20079;-88
2022/01/03 01:39:11;;;;;;;25.15;2.08;;;10.60;99.90;;;;;;5013394;28;20045;-87
2022/01/03 01:41:41;;;;;;;24.15;1.90;;;10.60;99.90;;;;;;5029980;28;20033;-87
2022/01/03 01:44:09;;;;;;;13.20;1.35;;;10.60;99.90;;;;;;5013766;28;20490;-87
2022/01/03 01:46:46;;;;;;;16.55;2.15;;;10.60;99.90;;;;;;5021823;28;20038;-87
2022/01/03 01:49:24;;;;;;;20.38;1.23;;;10.60;99.90;;;;;;5013046;28;20104;-87
2022/01/03 01:52:01;;;;;;;18.20;2.28;;;10.60;99.90;;;;;;5006776;28;20069;-87
2022/01/03 01:54:34;;;;;;;17.13;1.80;;;10.60;99.90;;;;;;5007128;28;20056;-88
2022/01/03 01:57:05;;;;;;;20.42;1.73;;;10.60;99.90;;;;;;5007818;28;20030;-88
2022/01/03 01:59:44;;;;;;;18.90;1.73;;;10.60;99.90;;;;;;5029376;28;20026;-87
2022/01/03 02:02:14;;;;;;;24.33;1.98;;;10.60;99.90;;;;;;5030388;28;20022;-87
2022/01/03 02:04:46;;;;;;;18.65;1.65;;;10.60;99.90;;;;;;5028580;28;20038;-87
2022/01/03 02:07:27;;;;;;;22.60;1.92;;;10.60;99.90;;;;;;5001853;28;20022;-88
2022/01/03 02:10:13;;;;;;;25.40;1.90;;;10.60;99.90;;;;;;5010889;28;20037;-88
2022/01/03 02:12:46;;;;;;;19.95;1.85;;;10.60;99.90;;;;;;5006917;28;20027;-87
2022/01/03 02:15:14;;;;;;;26.73;2.60;;;10.60;99.90;;;;;;5014147;28;20045;-87
2022/01/03 02:17:44;;;;;;;16.95;1.90;;;10.60;99.90;;;;;;5029198;28;20046;-87
2022/01/03 02:20:13;;;;;;;17.52;1.50;;;10.60;99.90;;;;;;5026043;28;20030;-88
2022/01/03 02:22:40;;;;;;;11.85;1.08;;;10.50;99.90;;;;;;5012555;28;20117;-88
2022/01/03 02:25:07;;;;;;;17.52;2.13;;;10.50;99.90;;;;;;5025431;28;20030;-88
2022/01/03 02:27:33;;;;;;;13.13;1.73;;;10.40;99.90;;;;;;5012731;28;20422;-87
2022/01/03 02:30:00;;;;;;;20.92;2.22;;;10.40;99.90;;;;;;5012558;28;20048;-87
2022/01/03 02:32:25;;;;;;;22.85;3.30;;;10.40;99.90;;;;;;5012780;28;20058;-87
2022/01/03 02:34:51;;;;;;;19.38;1.88;;;10.30;99.90;;;;;;5028533;28;20040;-87
2022/01/03 02:37:17;;;;;;;28.35;2.13;;;10.30;99.90;;;;;;5012892;28;20076;-87
2022/01/03 02:39:43;;;;;;;18.23;1.83;;;10.30;99.90;;;;;;5022652;28;20033;-88
2022/01/03 02:42:09;;;;;;;22.23;2.10;;;10.30;99.90;;;;;;5010056;28;20030;-87
2022/01/03 02:44:35;;;;;;;19.15;1.42;;;10.20;99.90;;;;;;4999179;28;20437;-88
2022/01/03 02:47:00;;;;;;;17.33;1.95;;;10.20;99.90;;;;;;5007711;28;20028;-87
2022/01/03 02:49:26;;;;;;;20.20;1.77;;;10.20;99.90;;;;;;5001788;28;20022;-87
2022/01/03 02:51:51;;;;;;;29.50;2.08;;;10.20;99.90;;;;;;5010419;28;20144;-88
2022/01/03 02:54:17;;;;;;;22.05;1.60;;;10.20;99.90;;;;;;5027846;28;20179;-87
2022/01/03 02:56:43;;;;;;;19.73;1.98;;;10.20;99.90;;;;;;5012815;28;20050;-87
2022/01/03 02:59:13;;;;;;;17.83;2.25;;;10.20;99.90;;;;;;5023993;28;20042;-87
2022/01/03 03:01:48;;;;;;;16.52;1.40;;;10.30;99.90;;;;;;5029231;28;20479;-87
2022/01/03 03:04:14;;;;;;;23.08;1.38;;;10.30;99.90;;;;;;5010409;28;20083;-88
2022/01/03 03:06:39;;;;;;;19.58;1.63;;;10.30;99.90;;;;;;5012163;28;20103;-88
2022/01/03 03:09:07;;;;;;;24.02;2.10;;;10.30;99.90;;;;;;5012447;28;20024;-87
2022/01/03 03:11:34;;;;;;;20.58;1.85;;;10.20;99.90;;;;;;5007438;28;20034;-87
2022/01/03 03:14:01;;;;;;;21.95;1.83;;;10.20;99.90;;;;;;5007920;28;20023;-88
2022/01/03 03:16:26;;;;;;;25.10;2.05;;;10.20;99.90;;;;;;5001228;28;20018;-87
2022/01/03 03:18:52;;;;;;;24.55;1.92;;;10.20;99.90;;;;;;5026464;28;20041;-87
2022/01/03 03:21:17;;;;;;;18.08;2.20;;;10.20;99.90;;;;;;5011052;28;20041;-87
2022/01/03 03:23:43;;;;;;;20.35;2.35;;;10.10;99.90;;;;;;5012097;28;20133;-87
2022/01/03 03:26:12;;;;;;;18.58;2.20;;;10.10;99.90;;;;;;5029382;28;20022;-88
2022/01/03 03:28:38;;;;;;;22.70;2.20;;;10.10;99.90;;;;;;5003594;28;20235;-88
2022/01/03 03:31:04;;;;;;;24.98;2.28;;;10.00;99.90;;;;;;5014552;28;20129;-88
2022/01/03 03:33:32;;;;;;;19.67;2.03;;;10.10;99.90;;;;;;5005037;28;20042;-88
2022/01/03 03:35:59;;;;;;;20.55;1.95;;;10.10;99.90;;;;;;5011571;28;20028;-88
2022/01/03 03:38:26;;;;;;;22.35;2.70;;;10.10;99.90;;;;;;5011793;28;20038;-87
2022/01/03 03:40:53;;;;;;;18.05;1.40;;;10.10;99.90;;;;;;5024532;28;20065;-87
2022/01/03 03:43:19;;;;;;;24.17;3.10;;;10.20;99.90;;;;;;5014172;28;20044;-87
2022/01/03 03:45:45;;;;;;;23.25;2.65;;;10.20;99.90;;;;;;5003332;28;20050;-87
2022/01/03 03:48:12;;;;;;;20.40;2.38;;;10.20;99.90;;;;;;5013987;28;20026;-88
2022/01/03 03:50:38;;;;;;;23.08;2.35;;;10.20;99.90;;;;;;5029876;28;20037;-87
2022/01/03 03:53:04;;;;;;;27.92;2.65;;;10.20;99.90;;;;;;5011991;28;20479;-87
2022/01/03 03:55:31;;;;;;;29.02;4.85;;;10.20;99.90;;;;;;5031922;28;20022;-88
2022/01/03 03:57:57;;;;;;;29.63;3.33;;;10.30;99.90;;;;;;5004115;28;20112;-88
2022/01/03 04:00:23;;;;;;;21.85;2.58;;;10.30;99.90;;;;;;5010771;28;20022;-88
2022/01/03 04:02:49;;;;;;;21.88;2.75;;;10.30;99.90;;;;;;5015545;28;20034;-88
2022/01/03 04:05:15;;;;;;;22.13;2.67;;;10.40;99.90;;;;;;5031023;28;20026;-87
2022/01/03 04:07:40;;;;;;;22.23;2.83;;;10.40;99.90;;;;;;5015774;28;20506;-87
2022/01/03 04:10:08;;;;;;;20.63;2.70;;;10.40;99.90;;;;;;5011880;28;20018;-87
2022/01/03 04:12:33;;;;;;;26.42;3.30;;;10.40;99.90;;;;;;5029153;28;20053;-87
2022/01/03 04:14:59;;;;;;;25.38;3.58;;;10.40;99.90;;;;;;5015988;28;20487;-88
2022/01/03 04:17:25;;;;;;;25.73;3.38;;;10.40;99.90;;;;;;5014219;28;20034;-87
2022/01/03 04:19:50;;;;;;;23.70;3.35;;;10.40;99.90;;;;;;5032325;28;20030;-88
2022/01/03 04:22:16;;;;;;;18.45;2.35;;;10.40;99.90;;;;;;5013288;28;20037;-87
2022/01/03 04:24:41;;;;;;;24.38;3.53;;;10.30;99.90;;;;;;5013420;28;20084;-88
2022/01/03 04:27:07;;;;;;;23.90;3.35;;;10.30;99.90;;;;;;5015513;28;20021;-88
2022/01/03 04:29:32;;;;;;;25.70;2.55;;;10.30;99.90;;;;;;5027324;28;20074;-86
2022/01/03 04:31:58;;;;;;;27.52;3.58;;;10.30;99.90;;;;;;5010425;28;20026;-88
2022/01/03 04:34:23;;;;;;;28.90;3.65;;;10.40;99.90;;;;;;5031715;28;20355;-88
2022/01/03 04:36:49;;;;;;;21.90;2.85;;;10.40;99.90;;;;;;5016260;28;20038;-87
2022/01/03 04:39:15;;;;;;;30.73;2.88;;;10.40;99.90;;;;;;5031289;28;20474;-87
2022/01/03 04:41:40;;;;;;;27.40;3.88;;;10.40;99.90;;;;;;5000760;28;20088;-86
2022/01/03 04:44:06;;;;;;;25.08;3.03;;;10.40;99.90;;;;;;5015609;28;20079;-87
2022/01/03 04:46:36;;;;;;;22.92;3.25;;;10.50;99.90;;;;;;5021460;28;20466;-88
2022/01/03 04:49:05;;;;;;;26.67;3.83;;;10.40;99.90;;;;;;5012225;28;20025;-88
2022/01/03 04:51:30;;;;;;;19.88;2.67;;;10.40;99.90;;;;;;5012326;28;20044;-88
2022/01/03 04:53:56;;;;;;;29.83;4.22;;;10.40;99.90;;;;;;5013848;28;20026;-88
2022/01/03 04:56:21;;;;;;;21.95;2.22;;;10.30;99.90;;;;;;5014273;28;20037;-86
2022/01/03 04:58:47;;;;;;;22.35;3.10;;;10.20;99.90;;;;;;5031378;28;20406;-88
2022/01/03 05:01:13;;;;;;;26.92;2.75;;;10.20;99.90;;;;;;5029056;28;20387;-88
2022/01/03 05:03:39;;;;;;;30.15;2.80;;;10.20;99.90;;;;;;5013707;28;20505;-88
2022/01/03 05:06:05;;;;;;;37.83;4.93;;;10.20;99.90;;;;;;5030170;28;20029;-87
2022/01/03 05:08:31;;;;;;;17.08;1.70;;;10.20;99.90;;;;;;5014441;28;20030;-86
2022/01/03 05:11:00;;;;;;;27.23;3.00;;;10.20;99.90;;;;;;5007156;28;20014;-87
2022/01/03 05:13:27;;;;;;;23.08;3.10;;;10.20;99.90;;;;;;5014357;28;20025;-88
2022/01/03 05:15:53;;;;;;;25.25;2.70;;;10.20;99.90;;;;;;5014550;28;20096;-88
2022/01/03 05:18:18;;;;;;;23.70;2.83;;;10.20;99.90;;;;;;5027787;28;20506;-88
2022/01/03 05:20:44;;;;;;;20.13;2.53;;;10.20;99.90;;;;;;5012978;28;20050;-87
2022/01/03 05:23:09;;;;;;;20.20;2.05;;;10.30;99.90;;;;;;5012403;28;20037;-88
2022/01/03 05:25:35;;;;;;;21.15;2.10;;;10.20;99.90;;;;;;5019108;28;20028;-87
2022/01/03 05:28:01;;;;;;;22.85;2.22;;;10.10;99.90;;;;;;5008216;28;20475;-87
2022/01/03 05:30:26;;;;;;;20.52;2.92;;;10.20;99.90;;;;;;5009861;28;20058;-87
2022/01/03 05:32:52;;;;;;;23.48;3.25;;;10.10;99.90;;;;;;5004808;28;20032;-88
2022/01/03 05:35:17;;;;;;;20.63;2.42;;;10.10;99.90;;;;;;5008412;28;20022;-88
2022/01/03 05:37:43;;;;;;;23.73;3.10;;;10.10;99.90;;;;;;5013600;28;20490;-87
2022/01/03 05:40:09;;;;;;;23.13;3.28;;;10.10;99.90;;;;;;5012720;28;20068;-87
2022/01/03 05:42:34;;;;;;;21.88;4.95;;;10.10;99.90;;;;;;5011393;28;20037;-87
2022/01/03 05:45:00;;;;;;;29.35;3.42;;;10.20;99.90;;;;;;5010537;28;20084;-88
2022/01/03 05:47:25;;;;;;;25.38;3.65;;;10.20;99.90;;;;;;5013244;28;20116;-87
2022/01/03 05:49:53;;;;;;;22.63;2.90;;;10.20;99.90;;;;;;5030914;28;20017;-88
2022/01/03 05:52:18;;;;;;;19.48;2.67;;;10.20;99.90;;;;;;5029926;28;20088;-87
2022/01/03 05:54:44;;;;;;;26.30;3.08;;;10.20;99.90;;;;;;5029763;28;20030;-88
2022/01/03 05:57:09;;;;;;;20.77;3.05;;;10.30;99.90;;;;;;5030569;28;20025;-88
2022/01/03 05:59:35;;;;;;;23.65;3.10;;;10.30;99.90;;;;;;5013824;28;20041;-88
2022/01/03 06:02:01;;;;;;;35.42;3.08;;;10.30;99.90;;;;;;5010239;28;20030;-89
2022/01/03 06:04:40;;;;;;;26.35;3.08;;;10.30;99.90;;;;;;5007348;28;20033;-88
2022/01/03 06:07:08;;;;;;;25.27;3.08;;;10.40;99.90;;;;;;4997736;28;20030;-88
2022/01/03 06:09:34;;;;;;;26.13;3.28;;;10.40;99.90;;;;;;5004169;28;20056;-88
2022/01/03 06:12:00;;;;;;;16.27;3.00;;;10.40;99.90;;;;;;5011413;28;20026;-88
2022/01/03 06:14:26;;;;;;;25.38;3.35;;;10.40;99.90;;;;;;5003616;28;20038;-87
2022/01/03 06:17:06;;;;;;;22.17;3.10;;;10.50;99.90;;;;;;5046912;28;20420;-75
2022/01/03 06:19:33;;;;;;;22.85;4.65;;;10.40;99.90;;;;;;5047648;28;20029;-75
2022/01/03 06:21:59;;;;;;;26.92;4.07;;;10.40;99.90;;;;;;5046494;28;20100;-75
2022/01/03 06:24:24;;;;;;;20.27;3.10;;;10.40;99.90;;;;;;5046786;28;20112;-75
2022/01/03 06:26:50;;;;;;;21.63;3.97;;;10.30;99.90;;;;;;5047693;28;20481;-75
2022/01/03 06:29:18;;;;;;;23.15;3.42;;;10.40;99.90;;;;;;5047388;28;20476;-76
2022/01/03 06:31:44;;;;;;;23.48;3.83;;;10.40;99.90;;;;;;5045996;28;20100;-75
2022/01/03 06:34:09;;;;;;;21.55;3.03;;;10.30;99.90;;;;;;5046660;28;20117;-75
2022/01/03 06:36:35;;;;;;;18.25;2.40;;;10.30;99.90;;;;;;5047590;28;20076;-76
2022/01/03 06:39:01;;;;;;;23.92;3.88;;;10.30;99.90;;;;;;5046071;28;20041;-76
2022/01/03 06:41:27;;;;;;;23.42;3.25;;;10.40;99.90;;;;;;5046328;28;20419;-75
2022/01/03 06:43:53;;;;;;;27.08;3.33;;;10.40;99.90;;;;;;5039439;28;20025;-76
2022/01/03 06:46:18;;;;;;;21.35;2.78;;;10.40;99.90;;;;;;5036946;28;20032;-75
2022/01/03 06:48:46;;;;;;;16.38;2.30;;;10.40;99.90;;;;;;5033730;28;20079;-75
2022/01/03 06:51:12;;;;;;;19.15;2.85;;;10.50;99.90;;;;;;5040305;28;20103;-75
2022/01/03 06:53:38;;;;;;;21.15;2.50;;;10.50;99.90;;;;;;5042187;28;20045;-75
2022/01/03 06:56:04;;;;;;;21.77;2.80;;;10.60;99.90;;;;;;5039060;28;20041;-75
2022/01/03 06:58:30;;;;;;;24.73;4.53;;;10.60;99.90;;;;;;5038493;28;20029;-75
2022/01/03 07:00:56;;;;;;;16.08;1.67;;;10.50;99.90;;;;;;5036830;28;20036;-75
2022/01/03 07:03:21;;;;;;;24.67;2.50;;;10.60;99.90;;;;;;5032545;28;20107;-75
2022/01/03 07:05:47;;;;;;;21.02;2.83;;;10.50;99.90;;;;;;5045604;28;20116;-75
2022/01/03 07:08:12;;;;;;;21.17;2.38;;;10.60;99.90;;;;;;5032492;28;20432;-75
2022/01/03 07:10:38;;;;;;;20.50;2.53;;;10.60;99.90;;;;;;5034668;28;20473;-75
2022/01/03 07:13:04;;;;;;;19.65;1.80;;;10.60;99.90;;;;;;5036781;28;20271;-75
2022/01/03 07:20:58;;;;;;;19.67;2.15;;;10.60;99.90;;;;;;5031558;28;20094;-75
2022/01/03 07:23:23;;;;;;;16.33;1.77;;;10.60;99.90;;;;;;5037157;28;20036;-76
2022/01/03 07:25:49;;;;;;;23.20;2.30;;;10.60;99.90;;;;;;5044011;28;20393;-75
2022/01/03 07:28:16;;;;;;;17.75;2.17;;;10.50;99.90;;;;;;5031448;28;20032;-75
2022/01/03 07:30:42;;;;;;;24.58;3.33;;;10.50;99.90;;;;;;5032248;28;20599;-75
2022/01/03 07:33:09;;;;;;;20.88;2.83;;;10.50;99.90;;;;;;5022305;28;20030;-74
2022/01/03 07:35:35;;;;;;;22.00;2.50;;;10.50;99.90;;;;;;5024735;28;20428;-74
2022/01/03 07:38:03;;;;;;;16.65;1.77;;;10.50;99.90;;;;;;5025317;28;20054;-74
2022/01/03 07:40:29;;;;;;;22.23;2.25;;;10.40;99.90;;;;;;5018697;28;20044;-74
2022/01/03 07:42:56;;;;;;;23.92;3.10;;;10.40;99.90;;;;;;5014449;28;20038;-75
2022/01/03 07:45:21;;;;;;;26.38;2.92;;;10.30;99.90;;;;;;5017104;28;20113;-74
2022/01/03 07:47:47;;;;;;;16.13;1.95;;;10.40;99.90;;;;;;5029121;28;20112;-75
2022/01/03 07:50:14;;;;;;;20.90;1.75;;;10.30;99.90;;;;;;5023482;28;20117;-75
2022/01/03 07:52:40;;;;;;;20.73;2.38;;;10.30;99.90;;;;;;5019682;28;20508;-75
2022/01/03 07:55:07;;;;;;;21.67;2.50;;;10.40;99.90;;;;;;5030542;28;20044;-75
2022/01/03 07:57:33;;;;;;;23.55;2.13;;;10.30;99.90;;;;;;5030691;28;20093;-75
2022/01/03 07:59:59;;;;;;;17.15;1.88;;;10.30;99.90;;;;;;5031506;28;20425;-75
2022/01/03 08:02:24;;;;;;;23.83;2.03;;;10.30;99.90;;;;;;5027421;28;20032;-75
2022/01/03 08:04:50;;;;;;;17.20;2.10;;;10.30;99.90;;;;;;5033354;28;20026;-75
2022/01/03 08:07:16;;;;;;;15.27;1.55;;;10.30;99.90;;;;;;5026249;28;20108;-75
2022/01/03 08:09:41;;;;;;;18.95;1.77;;;10.30;99.90;;;;;;5028087;28;20022;-75
2022/01/03 08:12:08;;;;;;;22.35;2.10;;;10.30;99.90;;;;;;5023908;28;20512;-74
2022/01/03 08:14:33;;;;;;;20.30;2.42;;;10.30;99.90;;;;;;5023712;28;20029;-75
2022/01/03 08:16:59;;;;;;;20.02;1.88;;;10.30;99.90;;;;;;5030752;28;20141;-75
2022/01/03 08:19:25;;;;;;;21.38;2.30;;;10.30;99.90;;;;;;5030768;28;20025;-75
2022/01/03 08:21:51;;;;;;;13.38;1.35;;;10.30;99.90;;;;;;5024830;28;20080;-73
2022/01/03 08:24:17;;;;;;;18.40;2.10;;;10.30;99.90;;;;;;5025586;28;20048;-74
2022/01/03 08:26:43;;;;;;;21.02;2.38;;;10.30;99.90;;;;;;5021237;28;20041;-74
2022/01/03 08:29:09;;;;;;;17.48;1.60;;;10.30;99.90;;;;;;5022185;28;20030;-74
2022/01/03 08:31:36;;;;;;;17.85;2.03;;;10.30;99.90;;;;;;5026742;28;20017;-74
2022/01/03 08:34:05;;;;;;;23.23;1.83;;;10.30;99.90;;;;;;5030169;28;20037;-74
2022/01/03 08:36:31;;;;;;;13.00;1.63;;;10.30;99.90;;;;;;5030651;28;20037;-75
2022/01/03 08:38:57;;;;;;;17.70;2.40;;;10.30;99.90;;;;;;5017927;28;20107;-75
2022/01/03 08:41:23;;;;;;;18.40;1.90;;;10.30;99.90;;;;;;5025278;28;20062;-75
2022/01/03 08:43:48;;;;;;;18.60;1.73;;;10.30;99.90;;;;;;5029531;28;20032;-75
2022/01/03 08:46:14;;;;;;;15.43;1.60;;;10.40;99.90;;;;;;5027413;28;20491;-75
2022/01/03 08:48:40;;;;;;;15.65;2.08;;;10.40;99.90;;;;;;5027209;28;20041;-74
2022/01/03 08:51:05;;;;;;;21.67;3.30;;;10.40;99.90;;;;;;5020554;28;20421;-74
2022/01/03 08:53:32;;;;;;;15.75;2.28;;;10.50;99.90;;;;;;5026588;28;20028;-73
2022/01/03 08:55:58;;;;;;;32.70;3.33;;;10.50;99.90;;;;;;5027837;28;20103;-74
2022/01/03 08:58:24;;;;;;;13.95;2.67;;;10.50;99.90;;;;;;5019788;28;20029;-75
2022/01/03 09:00:50;;;;;;;20.50;3.03;;;10.50;99.90;;;;;;5032318;28;20033;-73
2022/01/03 09:03:17;;;;;;;15.55;2.58;;;10.60;99.90;;;;;;5027579;28;20063;-74
2022/01/03 09:05:43;;;;;;;25.15;3.85;;;10.60;99.90;;;;;;5017356;28;20034;-74
2022/01/03 09:08:09;;;;;;;14.95;2.63;;;10.60;99.90;;;;;;5028539;28;20033;-74
2022/01/03 09:10:35;;;;;;;20.67;2.58;;;10.70;99.90;;;;;;5028691;28;20091;-74
2022/01/03 09:13:01;;;;;;;18.15;2.47;;;10.70;99.90;;;;;;5031053;28;20061;-74
2022/01/03 09:15:27;;;;;;;15.95;2.45;;;10.70;99.90;;;;;;5031790;28;20072;-74
2022/01/03 09:17:52;;;;;;;16.88;1.98;;;10.80;99.90;;;;;;5030760;28;20025;-74
2022/01/03 09:20:19;;;;;;;15.80;1.70;;;10.80;99.90;;;;;;5029010;28;20037;-74
2022/01/03 09:22:46;;;;;;;15.93;2.67;;;10.80;99.90;;;;;;5016303;28;20034;-74
2022/01/03 09:30:42;;;;;;;21.98;2.17;;;10.80;99.90;;;;;;5031967;28;20032;-75
2022/01/03 09:33:08;;;;;;;23.10;2.75;;;10.70;99.90;;;;;;5029276;28;20029;-74
2022/01/03 09:35:33;;;;;;;16.85;3.55;;;10.70;99.90;;;;;;5020663;28;20033;-74
2022/01/03 09:37:59;;;;;;;21.77;2.75;;;10.70;99.90;;;;;;5023751;28;20021;-74
2022/01/03 09:40:24;;;;;;;24.83;3.55;;;10.80;99.90;;;;;;5031008;28;20112;-74
2022/01/03 09:42:56;;;;;;;25.17;2.50;;;10.80;99.90;;;;;;5029141;28;20033;-75
2022/01/03 09:45:25;;;;;;;19.87;2.50;;;10.80;99.90;;;;;;5025280;28;20080;-74
2022/01/03 09:47:54;;;;;;;16.45;2.67;;;10.80;99.90;;;;;;5029617;28;20032;-74
2022/01/03 09:50:21;;;;;;;18.98;2.33;;;10.80;99.90;;;;;;5030343;28;20447;-75
2022/01/03 09:52:48;;;;;;;17.83;3.40;;;10.80;99.90;;;;;;5029244;28;20028;-75
2022/01/03 09:55:19;;;;;;;18.67;2.38;;;10.80;99.90;;;;;;5029853;28;20544;-75
2022/01/03 09:57:46;;;;;;;13.63;2.35;;;10.80;99.90;;;;;;5030407;28;20033;-74
2022/01/03 10:00:14;;;;;;;22.85;2.80;;;10.90;99.90;;;;;;5025034;28;20034;-74
2022/01/03 10:02:39;;;;;;;17.85;2.70;;;10.90;99.90;;;;;;5029622;28;20032;-76
2022/01/03 10:05:06;;;;;;;17.27;2.90;;;10.90;99.90;;;;;;5030682;28;20396;-75
2022/01/03 10:07:33;;;;;;;14.85;2.70;;;10.90;99.90;;;;;;5028671;28;20037;-75
2022/01/03 10:10:00;;;;;;;14.13;2.47;;;10.90;99.90;;;;;;5030176;28;20091;-75
2022/01/03 10:12:26;;;;;;;22.80;2.85;;;10.80;99.90;;;;;;5022671;28;20026;-75
2022/01/03 10:14:51;;;;;;;17.75;2.35;;;10.90;99.90;;;;;;5029738;28;20037;-75
2022/01/03 10:17:17;;;;;;;20.48;2.90;;;10.90;99.90;;;;;;5026566;28;20037;-75
2022/01/03 10:20:10;;;;;;;19.23;2.30;;;10.90;99.90;;;;;;5028974;28;20481;-75
2022/01/03 10:22:38;;;;;;;21.05;2.58;;;10.90;99.90;;;;;;5024352;28;20497;-75
2022/01/03 10:25:19;;;;;;;19.35;2.35;;;10.90;99.90;;;;;;5027785;28;20029;-74
2022/01/03 10:27:52;;;;;;;17.02;2.13;;;11.00;99.90;;;;;;5027447;28;20068;-75
2022/01/03 10:30:43;;;;;;;21.50;2.80;;;10.90;99.90;;;;;;5029631;28;20049;-75
2022/01/03 10:33:13;;;;;;;26.42;2.45;;;10.90;99.90;;;;;;5029550;28;20516;-75
2022/01/03 10:35:50;;;;;;;24.13;2.78;;;11.00;99.90;;;;;;5024004;28;20038;-75
2022/01/03 10:38:36;;;;;;;17.20;2.00;;;10.90;99.90;;;;;;5029413;28;20075;-75
2022/01/03 10:41:14;;;;;;;18.55;2.92;;;11.00;99.90;;;;;;5031408;28;20121;-75
2022/01/03 10:43:41;;;;;;;17.40;2.75;;;11.00;99.90;;;;;;5029364;28;20025;-75
2022/01/03 10:46:23;;;;;;;18.85;2.47;;;11.00;99.90;;;;;;5028158;28;20028;-75
2022/01/03 10:48:49;;;;;;;;;;;11.00;99.90;;;;;;5029064;28;20473;-74
2022/01/03 10:51:23;;;;;;;15.18;2.25;;;10.90;99.90;;;;;;5028937;28;19913;-75
2022/01/03 10:53:51;;;;;;;24.35;3.50;;;10.90;99.90;;;;;;5029478;28;20029;-75
2022/01/03 10:56:37;;;;;;;18.75;2.85;;;10.90;99.90;;;;;;5029842;28;20511;-75
2022/01/03 10:59:21;;;;;;;17.73;1.98;;;10.90;99.90;;;;;;5028976;28;20060;-75
2022/01/03 11:02:03;;;;;;;18.45;2.65;;;10.90;99.90;;;;;;5027820;28;20030;-75
2022/01/03 11:04:34;;;;;;;13.50;1.98;;;10.90;99.90;;;;;;5029458;28;20037;-75
2022/01/03 11:10:43;;;;;;;18.23;1.92;;;10.80;99.90;;;;;;5031383;28;20075;-75
2022/01/03 11:13:05;;;;;;;23.92;2.30;;;10.80;99.90;;;;;;5029500;28;20087;-75
2022/01/03 11:15:30;;;;;;;19.73;2.95;;;10.70;99.90;;;;;;5032710;28;20038;-75
2022/01/03 11:18:08;;;;;;;25.40;2.72;;;10.70;99.90;;;;;;5031884;28;20030;-74
2022/01/03 11:20:34;;;;;;;16.23;1.98;;;10.70;99.90;;;;;;5031301;28;20029;-75
2022/01/03 11:22:59;;;;;;;19.95;2.47;;;10.70;99.90;;;;;;5029906;28;20038;-75
2022/01/03 11:25:33;;;;;;;16.60;2.22;;;10.70;99.90;;;;;;5032847;28;20159;-75
2022/01/03 11:28:00;;;;;;;19.55;1.75;;;10.80;99.90;;;;;;5021193;28;20512;-75
2022/01/03 11:30:26;;;;;;;24.85;3.40;;;10.80;99.90;;;;;;5030419;28;20040;-76
2022/01/03 11:32:52;;;;;;;21.70;2.67;;;10.90;99.90;;;;;;5029142;28;20147;-75
2022/01/03 11:35:17;;;;;;;22.63;2.85;;;11.00;99.90;;;;;;5031455;28;20144;-75
2022/01/03 11:37:46;;;;;;;23.23;2.15;;;11.00;99.90;;;;;;5023613;28;20026;-75
2022/01/03 11:40:15;;;;;;;19.05;2.30;;;11.20;99.90;;;;;;5030149;28;20503;-75
2022/01/03 11:42:42;;;;;;;19.33;3.60;;;11.20;99.90;;;;;;5032823;28;20064;-75
2022/01/03 11:45:09;;;;;;;18.83;2.13;;;11.20;99.90;;;;;;5032530;28;20041;-74
2022/01/03 11:47:36;;;;;;;18.48;2.38;;;11.30;99.90;;;;;;5029711;28;20033;-75
2022/01/03 11:50:04;;;;;;;18.20;3.30;;;11.30;99.90;;;;;;5032372;28;20033;-75
2022/01/03 11:52:30;;;;;;;17.85;1.70;;;11.30;99.90;;;;;;5031086;28;20079;-75
2022/01/03 11:54:57;;;;;;;16.55;2.30;;;11.30;99.90;;;;;;5026968;28;20030;-75
2022/01/03 11:57:39;;;;;;;19.08;2.65;;;11.40;99.90;;;;;;5024359;28;20377;-74
2022/01/03 12:05:50;;;;;;;15.93;1.75;;;11.50;99.90;;;;;;5031011;28;20052;-75
2022/01/03 12:08:30;;;;;;;13.57;1.58;;;11.50;99.90;;;;;;5029541;28;20374;-75
2022/01/03 12:11:00;;;;;;;17.08;2.45;;;11.60;99.90;;;;;;5020764;28;20017;-75
2022/01/03 12:13:49;;;;;;;20.00;3.25;;;11.60;99.90;;;;;;5028016;28;20033;-75
2022/01/03 12:16:15;;;;;;;19.52;1.58;;;11.50;99.90;;;;;;5023970;28;20497;-75
2022/01/03 12:19:00;;;;;;;19.35;2.20;;;11.50;99.90;;;;;;5030443;28;20026;-75
2022/01/03 12:21:53;;;;;;;16.52;1.98;;;11.50;99.90;;;;;;5030024;28;20042;-75
2022/01/03 12:24:41;;;;;;;21.70;2.53;;;11.50;99.90;;;;;;5028622;28;20060;-75
2022/01/03 12:27:16;;;;;;;18.35;2.13;;;11.50;99.90;;;;;;5014993;28;20124;-74
2022/01/03 12:29:54;;;;;;;18.02;2.53;;;11.40;99.90;;;;;;5017979;28;20048;-75
2022/01/03 12:32:30;;;;;;;19.80;1.98;;;11.40;99.90;;;;;;5030434;28;20029;-75
2022/01/03 12:35:15;;;;;;;18.88;2.03;;;11.40;99.90;;;;;;5031562;28;20033;-74
2022/01/03 12:38:04;;;;;;;13.95;1.40;;;11.40;99.90;;;;;;5031251;28;20021;-75
2022/01/03 12:40:49;;;;;;;17.50;2.13;;;11.30;99.90;;;;;;5026219;28;20044;-75
2022/01/03 12:43:18;;;;;;;8.63;1.48;;;11.40;99.90;;;;;;5030176;28;20100;-74
2022/01/03 12:45:43;;;;;;;21.13;2.03;;;11.30;99.90;;;;;;5031727;28;20026;-75
2022/01/03 12:48:11;;;;;;;13.70;1.80;;;11.30;99.90;;;;;;5029232;28;20044;-75
2022/01/03 12:50:50;;;;;;;14.70;1.98;;;11.30;99.90;;;;;;5030045;28;20520;-75
2022/01/03 12:53:31;;;;;;;13.55;1.65;;;11.30;99.90;;;;;;5029308;28;20100;-75
2022/01/03 12:56:02;;;;;;;17.42;1.77;;;11.20;99.90;;;;;;5030225;28;20041;-74
2022/01/03 12:58:28;;;;;;;13.63;1.85;;;11.20;99.90;;;;;;5022006;28;20070;-75
2022/01/03 13:01:10;;;;;;;15.32;1.80;;;11.10;99.90;;;;;;5022900;28;20057;-74
2022/01/03 13:03:39;;;;;;;11.23;1.50;;;11.10;99.90;;;;;;5026734;28;20017;-75
2022/01/03 13:06:29;;;;;;;16.70;1.85;;;11.10;99.90;;;;;;5029985;28;20029;-74